Time;durP1;ratioP1;P1;durP2;ratioP2;P2;SDS_P1;SDS_P2;PMS_P1;PMS_P2;Temp;Humidity;BMP_temperature;BMP_pressure;BME280_temperature;BME280_humidity;BME280_pressure;Samples;Min_cycle;Max_cycle;Signal;HPM_P1;HPM_P2
2022/03/31 00:00:49;;;;;;;5.80;4.22;;;;;;;7.30;71.40;100036.41;5305495;28;20748;-71
2022/03/31 00:03:22;;;;;;;4.93;3.90;;;;;;;7.26;71.47;100033.22;5304474;28;20024;-71
2022/03/31 00:05:53;;;;;;;5.18;4.57;;;;;;;7.25;70.50;100036.78;5303064;28;20380;-71
2022/03/31 00:08:24;;;;;;;4.80;3.90;;;;;;;7.29;71.25;100032.97;5304797;28;20039;-69
2022/03/31 00:10:56;;;;;;;4.93;3.95;;;;;;;7.26;70.42;100037.63;5306471;28;20031;-71
2022/03/31 00:13:29;;;;;;;6.32;4.07;;;;;;;7.23;70.55;100043.91;5303995;28;20028;-71
2022/03/31 00:16:00;;;;;;;6.10;4.40;;;;;;;7.22;70.60;100037.03;5305592;28;20162;-71
2022/03/31 00:18:33;;;;;;;4.88;3.78;;;;;;;7.15;70.43;100048.91;5307436;28;20116;-71
2022/03/31 00:21:04;;;;;;;4.70;4.10;;;;;;;7.23;70.37;100048.28;5304669;28;20352;-71
2022/03/31 00:23:37;;;;;;;5.07;4.57;;;;;;;7.21;71.36;100051.03;5303610;28;20050;-71
2022/03/31 00:26:08;;;;;;;4.82;4.00;;;;;;;7.25;71.53;100049.00;5304170;28;20032;-71
2022/03/31 00:28:40;;;;;;;6.18;4.15;;;;;;;7.24;70.83;100047.34;5303089;28;20038;-71
2022/03/31 00:31:11;;;;;;;7.72;4.88;;;;;;;7.21;70.45;100040.59;5304732;28;20076;-69
2022/03/31 00:33:42;;;;;;;4.30;3.78;;;;;;;7.23;70.72;100040.47;5306425;28;20546;-71
2022/03/31 00:36:13;;;;;;;5.15;4.65;;;;;;;7.22;72.41;100038.81;5304655;28;20483;-70
2022/03/31 00:39:28;;;;;;;7.45;4.70;;;;;;;7.24;71.46;100042.16;5304008;28;20047;-71
2022/03/31 00:41:38;;;;;;;5.65;4.28;;;;;;;7.22;71.26;100041.44;5303504;28;20044;-70
2022/03/31 00:44:09;;;;;;;5.93;5.10;;;;;;;7.20;70.96;100043.34;5306508;28;20569;-71
2022/03/31 00:46:51;;;;;;;6.05;4.82;;;;;;;7.27;71.18;100039.25;5302022;28;20114;-71
2022/03/31 00:49:25;;;;;;;6.00;5.32;;;;;;;7.13;71.42;100043.03;5305191;28;20392;-71
2022/03/31 00:51:56;;;;;;;6.43;5.70;;;;;;;7.10;71.58;100040.69;5305474;28;20393;-71
2022/03/31 00:54:29;;;;;;;10.05;5.55;;;;;;;7.11;72.39;100036.28;5309794;28;20020;-71
2022/03/31 00:57:03;;;;;;;9.52;6.40;;;;;;;7.08;72.16;100037.34;5307493;28;20096;-73
2022/03/31 00:59:34;;;;;;;8.63;6.28;;;;;;;7.06;72.73;100037.50;5305407;28;20051;-71
2022/03/31 01:02:05;;;;;;;8.57;7.07;;;;;;;7.12;73.21;100038.75;5308068;28;20590;-71
2022/03/31 01:04:39;;;;;;;8.05;7.00;;;;;;;7.15;73.15;100029.88;5307699;28;20093;-71
2022/03/31 01:07:11;;;;;;;8.88;7.35;;;;;;;7.08;72.65;100026.94;5307237;28;20384;-71
2022/03/31 01:09:42;;;;;;;9.32;7.53;;;;;;;7.16;73.33;100027.16;5307082;28;20020;-71
2022/03/31 01:12:14;;;;;;;8.07;6.35;;;;;;;7.18;73.38;100029.63;5309415;28;20028;-70
2022/03/31 01:14:45;;;;;;;9.68;7.07;;;;;;;7.15;72.62;100024.66;5305962;27;20020;-71
2022/03/31 01:17:18;;;;;;;7.90;6.95;;;;;;;7.10;73.45;100019.03;5309992;28;20043;-71
2022/03/31 01:19:49;;;;;;;7.65;6.80;;;;;;;7.03;73.11;100013.50;5306959;28;20055;-71
2022/03/31 01:22:27;;;;;;;9.18;7.57;;;;;;;7.03;73.44;100001.28;5306912;28;20118;-69
2022/03/31 01:25:00;;;;;;;7.88;6.40;;;;;;;6.98;73.60;100008.66;5308281;28;20032;-71
2022/03/31 01:27:36;;;;;;;8.27;6.53;;;;;;;7.06;74.18;100005.44;5305340;28;20027;-71
2022/03/31 01:30:11;;;;;;;9.35;6.53;;;;;;;6.99;73.87;100012.09;5308620;28;20085;-71
2022/03/31 01:32:44;;;;;;;8.50;7.00;;;;;;;6.90;74.10;100010.25;5308299;28;20220;-71
2022/03/31 01:35:15;;;;;;;7.35;6.35;;;;;;;6.95;74.48;100011.53;5307939;28;20027;-71
2022/03/31 01:37:47;;;;;;;7.90;6.65;;;;;;;6.85;74.66;100005.41;5308326;28;20016;-71
2022/03/31 01:40:18;;;;;;;7.70;6.53;;;;;;;6.80;74.80;99995.38;5314963;28;20031;-71
2022/03/31 01:42:50;;;;;;;8.65;7.18;;;;;;;6.85;75.35;99997.59;5306367;28;20030;-71
2022/03/31 01:45:22;;;;;;;10.77;7.65;;;;;;;6.77;76.62;99994.81;5309034;28;20085;-72
2022/03/31 01:47:54;;;;;;;9.48;8.02;;;;;;;6.82;76.39;99987.47;5307123;28;20035;-72
2022/03/31 01:50:25;;;;;;;8.90;7.60;;;;;;;6.87;76.49;99997.50;5305326;28;20027;-72
2022/03/31 01:52:56;;;;;;;9.88;7.82;;;;;;;6.83;76.58;99989.09;5307894;28;20058;-71
2022/03/31 01:55:27;;;;;;;10.65;8.25;;;;;;;6.76;77.34;99990.56;5308203;28;20020;-72
2022/03/31 01:57:59;;;;;;;13.27;8.20;;;;;;;6.72;78.64;99984.78;5305173;28;20028;-72
2022/03/31 02:00:30;;;;;;;10.73;9.35;;;;;;;6.65;78.97;99988.03;5308343;28;20032;-72
2022/03/31 02:03:02;;;;;;;9.85;8.10;;;;;;;6.65;79.95;99983.63;5308003;27;20263;-72
2022/03/31 02:05:33;;;;;;;11.32;9.25;;;;;;;6.57;79.54;99989.47;5302855;28;20507;-71
2022/03/31 02:08:04;;;;;;;13.13;9.50;;;;;;;6.59;80.53;99986.72;5305821;28;20073;-72
2022/03/31 02:10:36;;;;;;;13.10;9.93;;;;;;;6.44;81.46;99978.44;5308565;28;20101;-72
2022/03/31 02:13:08;;;;;;;13.35;9.75;;;;;;;6.48;80.97;99976.41;5305235;28;20116;-71
2022/03/31 02:15:39;;;;;;;12.73;10.77;;;;;;;6.40;81.75;99971.78;5305740;28;20492;-71
2022/03/31 02:18:11;;;;;;;10.52;9.18;;;;;;;6.34;82.75;99970.53;5309435;28;20066;-71
2022/03/31 02:20:42;;;;;;;12.00;10.15;;;;;;;6.34;82.86;99973.13;5304786;28;20027;-69
2022/03/31 02:23:13;;;;;;;12.70;9.98;;;;;;;6.34;83.63;99962.72;5304614;28;20015;-69
2022/03/31 02:25:45;;;;;;;11.52;10.07;;;;;;;6.34;84.30;99969.72;5310225;28;20020;-70
2022/03/31 02:28:16;;;;;;;11.10;9.43;;;;;;;6.32;84.04;99962.00;5306791;28;20031;-70
2022/03/31 02:30:47;;;;;;;12.40;9.07;;;;;;;6.37;84.91;99971.25;5306982;28;20078;-69
2022/03/31 02:33:19;;;;;;;11.43;8.32;;;;;;;6.31;85.09;99969.94;5305817;28;20061;-70
2022/03/31 02:35:50;;;;;;;9.98;8.30;;;;;;;6.29;85.75;99969.25;5307751;28;20024;-70
2022/03/31 02:38:22;;;;;;;12.07;8.23;;;;;;;6.27;85.17;99971.16;5306280;28;20020;-70
2022/03/31 02:40:53;;;;;;;11.70;8.50;;;;;;;6.19;84.90;99961.38;5305065;28;20251;-70
2022/03/31 02:43:25;;;;;;;10.90;9.48;;;;;;;6.25;86.31;99963.47;5306264;28;20035;-69
2022/03/31 02:45:56;;;;;;;10.63;8.38;;;;;;;6.16;88.30;99963.38;5308067;28;20050;-70
2022/03/31 02:48:27;;;;;;;8.77;7.47;;;;;;;6.16;90.24;99965.97;5305067;28;20035;-69
2022/03/31 02:50:58;;;;;;;8.60;7.22;;;;;;;6.04;92.78;99960.81;5304615;28;20491;-69
2022/03/31 02:56:20;;;;;;;9.07;6.90;;;;;;;6.04;93.11;99960.81;5306183;28;20556;-70
2022/03/31 02:58:51;;;;;;;8.93;7.38;;;;;;;5.96;95.42;99952.00;5307401;28;20111;-69
2022/03/31 03:01:23;;;;;;;9.98;7.82;;;;;;;5.94;95.65;99959.06;5305970;28;20028;-70
2022/03/31 03:03:55;;;;;;;9.60;7.22;;;;;;;5.87;95.78;99945.69;5305687;28;20098;-68
2022/03/31 03:06:27;;;;;;;8.27;7.30;;;;;;;5.79;97.29;99945.47;5305752;28;20028;-69
2022/03/31 03:08:58;;;;;;;8.95;7.50;;;;;;;5.73;98.35;99946.81;5306997;28;20281;-70
2022/03/31 03:11:29;;;;;;;6.88;6.18;;;;;;;5.75;98.30;99947.50;5306653;28;20028;-69
2022/03/31 03:14:01;;;;;;;6.57;5.72;;;;;;;5.68;98.50;99946.31;5306861;28;20522;-69
2022/03/31 03:16:32;;;;;;;6.75;5.53;;;;;;;5.55;97.59;99937.84;5308189;28;20513;-70
2022/03/31 03:19:04;;;;;;;4.90;4.38;;;;;;;5.49;97.90;99935.72;5306794;28;20034;-70
2022/03/31 03:21:35;;;;;;;4.55;3.85;;;;;;;5.34;97.71;99936.00;5304302;28;20027;-70
2022/03/31 03:24:07;;;;;;;4.68;3.75;;;;;;;5.28;97.81;99951.22;5305547;28;20058;-70
2022/03/31 03:26:38;;;;;;;5.22;4.10;;;;;;;5.20;99.72;99945.78;5305556;28;20418;-70
2022/03/31 03:29:10;;;;;;;5.18;4.25;;;;;;;5.12;100.00;99944.59;5304101;28;20036;-70
2022/03/31 03:31:41;;;;;;;3.92;3.25;;;;;;;5.03;100.00;99947.06;5304337;28;20397;-70
2022/03/31 03:34:13;;;;;;;4.40;3.08;;;;;;;5.00;100.00;99935.16;5304246;28;20108;-70
2022/03/31 03:36:45;;;;;;;3.97;3.25;;;;;;;4.95;100.00;99939.84;5305906;28;20015;-70
2022/03/31 03:39:16;;;;;;;2.95;2.60;;;;;;;4.85;100.00;99939.75;5304351;28;20031;-70
2022/03/31 03:41:48;;;;;;;3.03;2.53;;;;;;;4.75;100.00;99940.53;5300868;28;20016;-70
2022/03/31 03:44:19;;;;;;;2.90;2.40;;;;;;;4.66;100.00;99941.22;5305957;28;20105;-70
2022/03/31 03:46:50;;;;;;;2.92;2.17;;;;;;;4.61;100.00;99942.38;5306714;28;20031;-70
2022/03/31 03:49:21;;;;;;;2.30;2.00;;;;;;;4.55;100.00;99940.25;5306702;28;20074;-70
2022/03/31 03:51:53;;;;;;;3.05;2.33;;;;;;;4.61;99.70;99946.75;5306836;28;20031;-70
2022/03/31 03:54:24;;;;;;;4.47;2.30;;;;;;;4.45;100.00;99947.06;5305700;28;20032;-70
2022/03/31 03:56:55;;;;;;;2.35;2.15;;;;;;;4.44;100.00;99952.38;5304259;28;20023;-70
2022/03/31 03:59:27;;;;;;;3.85;2.33;;;;;;;4.44;100.00;99950.59;5301914;28;20578;-70
2022/03/31 04:02:01;;;;;;;2.55;2.15;;;;;;;4.31;100.00;99947.25;5304746;28;20389;-70
2022/03/31 04:04:32;;;;;;;2.80;2.40;;;;;;;4.34;100.00;99953.03;5305295;28;20027;-70
2022/03/31 04:07:03;;;;;;;2.63;2.08;;;;;;;4.35;100.00;99956.44;5304728;28;20468;-70
2022/03/31 04:09:35;;;;;;;3.30;2.47;;;;;;;4.40;100.00;99951.78;5303891;28;20028;-70
2022/03/31 04:12:06;;;;;;;2.75;2.13;;;;;;;4.32;100.00;99952.34;5307737;28;20530;-71
2022/03/31 04:14:38;;;;;;;4.18;2.65;;;;;;;4.28;100.00;99945.72;5303479;28;20038;-70
2022/03/31 04:17:09;;;;;;;4.07;2.30;;;;;;;4.25;100.00;99945.94;5305714;28;20428;-69
2022/03/31 04:19:42;;;;;;;4.15;2.75;;;;;;;4.19;100.00;99943.78;5307717;28;20027;-69
2022/03/31 04:22:13;;;;;;;3.20;2.78;;;;;;;4.07;100.00;99947.25;5306211;28;20445;-69
2022/03/31 04:24:45;;;;;;;3.35;2.72;;;;;;;4.01;100.00;99953.69;5305206;28;20036;-69
2022/03/31 04:27:16;;;;;;;3.20;2.30;;;;;;;4.00;100.00;99951.22;5307746;28;20022;-69
2022/03/31 04:29:47;;;;;;;2.60;2.40;;;;;;;3.96;100.00;99955.81;5311385;28;20059;-69
2022/03/31 04:32:19;;;;;;;3.13;2.40;;;;;;;3.90;100.00;99956.22;5305149;28;20129;-69
2022/03/31 04:34:50;;;;;;;3.22;2.08;;;;;;;3.93;100.00;99947.41;5310240;28;20031;-69
2022/03/31 04:37:22;;;;;;;3.13;2.45;;;;;;;3.90;100.00;99956.22;5307549;28;20028;-69
2022/03/31 04:39:53;;;;;;;4.57;2.05;;;;;;;3.83;100.00;99970.59;5308257;28;20027;-69
2022/03/31 04:42:24;;;;;;;6.03;1.90;;;;;;;3.77;100.00;99956.28;5309150;28;20085;-69
2022/03/31 04:44:56;;;;;;;2.10;1.70;;;;;;;3.71;100.00;99956.69;5310018;28;20539;-69
2022/03/31 04:47:31;;;;;;;2.83;1.75;;;;;;;3.74;100.00;99955.66;5305335;28;20036;-69
2022/03/31 04:50:03;;;;;;;4.10;1.60;;;;;;;3.66;100.00;99954.44;5311865;28;20096;-68
2022/03/31 04:52:34;;;;;;;3.17;2.00;;;;;;;3.61;100.00;99960.91;5309566;28;20032;-68
2022/03/31 04:55:06;;;;;;;3.25;1.63;;;;;;;3.56;100.00;99961.22;5305917;28;20048;-69
2022/03/31 04:57:38;;;;;;;2.25;1.70;;;;;;;3.56;100.00;99963.81;5308572;28;20088;-69
2022/03/31 05:00:10;;;;;;;2.30;1.67;;;;;;;3.50;100.00;99960.81;5312277;28;20119;-69
2022/03/31 05:02:41;;;;;;;2.10;1.60;;;;;;;3.48;100.00;99963.50;5308000;28;20070;-69
2022/03/31 05:05:12;;;;;;;1.92;1.48;;;;;;;3.47;100.00;99966.19;5308132;28;20047;-69
2022/03/31 05:07:44;;;;;;;2.30;1.70;;;;;;;3.48;100.00;99967.84;5310282;27;20107;-69
2022/03/31 05:10:16;;;;;;;1.98;1.52;;;;;;;3.52;100.00;99959.75;5309810;28;20020;-69
2022/03/31 05:12:47;;;;;;;2.03;1.55;;;;;;;3.42;100.00;99967.34;5308338;28;20031;-69
2022/03/31 05:15:18;;;;;;;2.05;1.60;;;;;;;3.40;100.00;99963.19;5307315;28;20024;-69
2022/03/31 05:17:50;;;;;;;3.90;1.90;;;;;;;3.37;100.00;99963.41;5309164;28;20044;-69
2022/03/31 05:20:22;;;;;;;1.90;1.58;;;;;;;3.35;100.00;99960.94;5303722;28;20028;-69
2022/03/31 05:22:53;;;;;;;3.28;2.05;;;;;;;3.27;100.00;99952.06;5303375;28;20020;-69
2022/03/31 05:25:25;;;;;;;2.95;1.58;;;;;;;3.23;100.00;99961.78;5308544;28;20078;-68
2022/03/31 05:27:58;;;;;;;2.70;1.80;;;;;;;3.20;100.00;99971.50;5307221;28;20027;-68
2022/03/31 05:30:30;;;;;;;2.38;1.83;;;;;;;3.14;100.00;99968.44;5306910;28;20036;-71
2022/03/31 05:33:02;;;;;;;2.00;1.50;;;;;;;3.11;100.00;99971.22;5305258;28;20027;-71
2022/03/31 05:35:34;;;;;;;1.92;1.50;;;;;;;3.07;100.00;99964.59;5306218;28;20028;-70
2022/03/31 05:38:06;;;;;;;2.22;1.40;;;;;;;3.07;100.00;99971.50;5305065;28;20079;-68
2022/03/31 05:40:38;;;;;;;2.20;1.83;;;;;;;3.02;100.00;99965.81;5308771;28;20515;-70
2022/03/31 05:43:09;;;;;;;2.20;1.80;;;;;;;3.01;100.00;99970.16;5311013;28;20051;-70
2022/03/31 05:45:41;;;;;;;2.03;1.58;;;;;;;2.97;100.00;99973.91;5306941;28;20062;-70
2022/03/31 05:48:12;;;;;;;2.63;1.90;;;;;;;2.93;100.00;99965.50;5305062;28;20023;-69
2022/03/31 05:50:44;;;;;;;2.70;1.92;;;;;;;2.86;100.00;99974.59;5306398;28;20028;-70
2022/03/31 05:53:15;;;;;;;2.10;1.70;;;;;;;2.81;100.00;99976.69;5307894;28;20019;-70
2022/03/31 05:55:47;;;;;;;2.10;1.42;;;;;;;2.70;100.00;99973.97;5306688;28;20036;-70
2022/03/31 05:58:18;;;;;;;1.85;1.60;;;;;;;2.76;100.00;99973.56;5306721;28;20037;-68
2022/03/31 06:00:53;;;;;;;1.80;1.58;;;;;;;2.73;100.00;99960.00;5307507;28;20028;-69
2022/03/31 06:03:24;;;;;;;2.60;1.58;;;;;;;2.73;100.00;99957.41;5306066;28;20421;-69
2022/03/31 06:05:56;;;;;;;2.97;1.52;;;;;;;2.75;100.00;99960.72;5308077;28;20050;-69
2022/03/31 06:08:28;;;;;;;2.30;1.52;;;;;;;2.75;100.00;99961.56;5305729;28;20077;-70
2022/03/31 06:10:59;;;;;;;2.00;1.35;;;;;;;2.78;100.00;99965.72;5304765;28;20111;-70
2022/03/31 06:13:30;;;;;;;3.40;1.70;;;;;;;2.76;100.00;99960.63;5307425;28;20035;-70
2022/03/31 06:16:03;;;;;;;2.78;1.65;;;;;;;2.88;100.00;99962.41;5308360;28;20112;-70
2022/03/31 06:18:34;;;;;;;2.40;1.80;;;;;;;2.90;100.00;99965.72;5307702;28;20763;-70
2022/03/31 06:21:06;;;;;;;2.40;1.85;;;;;;;2.91;100.00;99964.78;5311378;28;20055;-70
2022/03/31 06:23:37;;;;;;;2.55;2.00;;;;;;;2.90;100.00;99970.88;5309651;28;20027;-70
2022/03/31 06:26:09;;;;;;;2.35;1.88;;;;;;;2.97;100.00;99965.31;5308399;28;20392;-70
2022/03/31 06:28:40;;;;;;;2.70;1.88;;;;;;;2.90;100.00;99976.06;5305014;28;20534;-70
2022/03/31 06:31:12;;;;;;;2.35;1.60;;;;;;;2.91;100.00;99975.13;5306078;28;20072;-70
2022/03/31 06:33:43;;;;;;;2.10;1.50;;;;;;;2.90;100.00;99976.06;5307145;28;20582;-70
2022/03/31 06:36:15;;;;;;;2.22;1.77;;;;;;;2.90;100.00;99973.47;5307250;28;20138;-70
2022/03/31 06:38:46;;;;;;;3.42;2.00;;;;;;;2.91;100.00;99980.28;5305606;27;20216;-70
2022/03/31 06:41:18;;;;;;;2.90;1.90;;;;;;;2.86;100.00;99982.38;5308044;28;20036;-71
2022/03/31 06:43:49;;;;;;;2.83;2.20;;;;;;;2.92;100.00;99978.56;5299707;28;20016;-70
2022/03/31 06:46:20;;;;;;;2.60;2.20;;;;;;;2.90;100.00;99981.22;5302606;28;20028;-70
2022/03/31 06:48:52;;;;;;;2.35;2.10;;;;;;;2.96;100.00;99977.41;5304664;28;20027;-70
2022/03/31 06:51:23;;;;;;;2.60;2.40;;;;;;;2.89;100.00;99973.59;5307609;28;20028;-70
2022/03/31 06:53:57;;;;;;;2.42;2.22;;;;;;;2.98;100.00;99979.91;5306306;28;20560;-70
2022/03/31 06:56:30;;;;;;;2.50;2.28;;;;;;;2.96;100.00;99984.34;5307769;28;20476;-70
2022/03/31 06:59:02;;;;;;;3.00;2.47;;;;;;;3.04;100.00;99982.91;5304017;28;20403;-70
2022/03/31 07:01:33;;;;;;;3.35;3.03;;;;;;;3.03;100.00;99975.22;5303663;28;20068;-70
2022/03/31 07:04:06;;;;;;;3.40;2.90;;;;;;;3.03;100.00;99968.31;5306504;28;20020;-70
2022/03/31 07:06:38;;;;;;;3.40;2.70;;;;;;;3.03;100.00;99975.22;5305066;28;20034;-70
2022/03/31 07:09:09;;;;;;;2.88;2.53;;;;;;;3.05;100.00;99971.63;5307646;28;20024;-70
2022/03/31 07:11:40;;;;;;;2.95;2.50;;;;;;;3.01;100.00;99959.81;5295339;28;20034;-70
2022/03/31 07:14:11;;;;;;;2.78;2.50;;;;;;;3.06;100.00;99970.69;5305051;28;20032;-70
2022/03/31 07:16:43;;;;;;;3.15;2.58;;;;;;;3.03;100.00;99967.47;5304634;28;20048;-68
2022/03/31 07:19:14;;;;;;;3.17;2.60;;;;;;;3.02;100.00;99960.66;5298804;28;20391;-70
2022/03/31 07:21:45;;;;;;;2.80;2.50;;;;;;;2.98;100.00;99972.97;5306119;28;20077;-70
2022/03/31 07:24:17;;;;;;;2.80;2.45;;;;;;;3.07;100.00;99977.53;5300784;28;20034;-68
2022/03/31 07:26:48;;;;;;;3.33;2.70;;;;;;;3.07;100.00;99969.78;5304184;28;20027;-68
2022/03/31 07:29:19;;;;;;;2.60;2.40;;;;;;;3.08;100.00;99968.81;5307406;28;20092;-68
2022/03/31 07:31:51;;;;;;;3.10;2.80;;;;;;;3.08;100.00;99971.41;5304371;28;20051;-69
2022/03/31 07:34:22;;;;;;;3.05;2.75;;;;;;;3.13;100.00;99971.09;5303374;28;20026;-68
2022/03/31 07:36:54;;;;;;;3.15;2.80;;;;;;;3.11;100.00;99973.81;5301172;28;20019;-69
2022/03/31 07:39:26;;;;;;;3.13;2.58;;;;;;;3.12;100.00;99965.09;5305010;28;20119;-69
2022/03/31 07:41:58;;;;;;;3.60;3.13;;;;;;;3.15;100.00;99975.25;5301671;28;20027;-69
2022/03/31 07:44:30;;;;;;;3.25;2.38;;;;;;;3.14;100.00;99975.34;5300970;28;20785;-69
2022/03/31 07:47:01;;;;;;;2.90;2.60;;;;;;;3.16;100.00;99976.06;5300462;28;20447;-68
2022/03/31 07:49:32;;;;;;;4.25;2.90;;;;;;;3.20;100.00;99976.69;5301946;28;20561;-68
2022/03/31 07:52:04;;;;;;;2.95;2.58;;;;;;;3.20;100.00;99972.34;5304839;28;20363;-68
2022/03/31 07:54:35;;;;;;;3.08;2.60;;;;;;;3.15;100.00;99975.25;5306740;28;20030;-69
2022/03/31 07:57:06;;;;;;;2.90;2.38;;;;;;;3.17;100.00;99972.53;5303021;28;20032;-69
2022/03/31 07:59:38;;;;;;;3.40;2.65;;;;;;;3.21;100.00;99980.94;5301605;28;20024;-69
2022/03/31 08:02:09;;;;;;;2.75;2.40;;;;;;;3.24;100.00;99968.59;5309032;28;20034;-69
2022/03/31 08:04:40;;;;;;;2.63;2.00;;;;;;;3.26;100.00;99971.09;5306511;28;20033;-69
2022/03/31 08:07:12;;;;;;;3.00;1.95;;;;;;;3.35;100.00;99965.28;5305700;28;20027;-69
2022/03/31 08:09:43;;;;;;;2.83;2.28;;;;;;;3.31;100.00;99962.09;5306248;28;20031;-69
2022/03/31 08:12:14;;;;;;;2.60;2.10;;;;;;;3.34;100.00;99959.28;5306460;28;20100;-69
2022/03/31 08:14:46;;;;;;;2.88;2.08;;;;;;;3.36;100.00;99964.34;5309632;28;20028;-69
2022/03/31 08:17:17;;;;;;;2.20;1.90;;;;;;;3.37;100.00;99955.63;5307011;28;20424;-69
2022/03/31 08:19:48;;;;;;;4.03;2.22;;;;;;;3.47;100.00;99956.66;5305874;28;20038;-69
2022/03/31 08:22:22;;;;;;;3.78;1.98;;;;;;;3.58;100.00;99958.50;5307387;28;20066;-69
2022/03/31 08:24:53;;;;;;;4.00;2.60;;;;;;;3.54;100.00;99954.50;5307690;28;20145;-69
2022/03/31 08:27:25;;;;;;;3.22;2.35;;;;;;;3.58;100.00;99954.16;5307572;28;20182;-69
2022/03/31 08:29:56;;;;;;;3.88;2.35;;;;;;;3.61;100.00;99960.91;5304311;28;20030;-69
2022/03/31 08:32:28;;;;;;;4.40;2.65;;;;;;;3.65;100.00;99959.75;5306276;28;20027;-69
2022/03/31 08:34:59;;;;;;;4.25;2.83;;;;;;;3.70;100.00;99964.59;5304246;28;20032;-69
2022/03/31 08:37:31;;;;;;;3.08;2.28;;;;;;;3.68;100.00;99961.31;5305578;28;20032;-69
2022/03/31 08:40:03;;;;;;;3.63;2.58;;;;;;;3.70;100.00;99962.00;5306947;28;20032;-69
2022/03/31 08:42:35;;;;;;;3.33;2.50;;;;;;;3.66;100.00;99954.44;5308163;28;20101;-69
2022/03/31 08:45:11;;;;;;;3.50;2.65;;;;;;;3.78;100.00;99964.88;5302903;28;20076;-69
2022/03/31 08:47:44;;;;;;;3.08;2.30;;;;;;;3.76;100.00;99965.00;5297470;28;20020;-69
2022/03/31 08:50:20;;;;;;;2.55;2.28;;;;;;;3.78;100.00;99967.47;5306113;28;20032;-69
2022/03/31 08:52:53;;;;;;;2.95;2.65;;;;;;;3.78;100.00;99968.28;5306717;28;20031;-69
2022/03/31 08:55:24;;;;;;;3.05;2.70;;;;;;;3.82;100.00;99971.50;5303070;28;20023;-69
2022/03/31 08:57:56;;;;;;;2.63;2.35;;;;;;;3.94;100.00;99973.25;5306413;28;21387;-69
2022/03/31 09:00:27;;;;;;;2.92;2.17;;;;;;;3.97;100.00;99969.59;5302455;28;20031;-69
2022/03/31 09:03:01;;;;;;;2.95;2.55;;;;;;;4.07;100.00;99968.81;5301362;28;20024;-69
2022/03/31 09:05:41;;;;;;;3.00;2.58;;;;;;;4.24;100.00;99982.31;5308516;28;20028;-69
2022/03/31 09:08:14;;;;;;;2.78;2.47;;;;;;;4.19;100.00;99972.28;5307388;28;20055;-69
2022/03/31 09:10:49;;;;;;;2.40;2.15;;;;;;;4.22;100.00;99986.81;5304463;28;20122;-69
2022/03/31 09:13:28;;;;;;;4.78;2.38;;;;;;;4.32;100.00;99982.63;5307764;28;20042;-69
2022/03/31 09:16:04;;;;;;;3.47;2.80;;;;;;;4.39;100.00;99976.88;5307168;28;20044;-71
2022/03/31 09:18:36;;;;;;;3.17;2.60;;;;;;;4.28;100.00;99981.16;5303755;28;20054;-70
2022/03/31 09:21:12;;;;;;;2.95;2.65;;;;;;;4.30;100.00;99974.13;5306528;28;20471;-69
2022/03/31 09:23:46;;;;;;;2.67;2.20;;;;;;;4.33;100.00;99985.09;5303560;28;20102;-69
2022/03/31 09:26:18;;;;;;;3.60;2.60;;;;;;;4.32;100.00;99970.47;5305402;28;20064;-69
2022/03/31 09:28:50;;;;;;;3.65;2.95;;;;;;;4.38;100.00;99972.59;5306177;28;20511;-69
2022/03/31 09:31:24;;;;;;;3.45;2.90;;;;;;;4.34;100.00;99980.72;5304701;28;20032;-69
2022/03/31 09:33:57;;;;;;;3.83;2.78;;;;;;;4.33;100.00;99979.91;5308442;28;20020;-69
2022/03/31 09:36:28;;;;;;;3.08;2.70;;;;;;;4.32;100.00;99991.22;5303779;28;20034;-69
2022/03/31 09:39:08;;;;;;;3.95;3.30;;;;;;;4.46;100.00;99985.03;5305507;28;20016;-69
2022/03/31 09:41:42;;;;;;;4.95;3.53;;;;;;;4.32;100.00;99975.66;5299133;28;20036;-69
2022/03/31 09:44:17;;;;;;;3.55;3.22;;;;;;;4.37;100.00;99976.16;5302047;28;20058;-69
2022/03/31 09:46:50;;;;;;;6.57;3.08;;;;;;;4.44;100.00;99980.91;5305829;28;20046;-69
2022/03/31 09:49:26;;;;;;;4.40;2.97;;;;;;;4.51;100.00;99976.91;5305814;28;20023;-69
2022/03/31 09:52:01;;;;;;;4.10;2.78;;;;;;;4.49;100.00;99982.19;5305159;28;20036;-69
2022/03/31 09:54:33;;;;;;;4.32;2.85;;;;;;;4.46;100.00;99987.59;5304492;28;20915;-68
2022/03/31 09:57:10;;;;;;;4.43;2.85;;;;;;;4.42;100.00;99980.16;5306185;28;20043;-68
2022/03/31 09:59:44;;;;;;;2.92;2.42;;;;;;;4.40;100.00;99980.28;5305072;28;20071;-68
2022/03/31 10:02:15;;;;;;;3.58;2.63;;;;;;;4.40;100.00;99980.28;5306841;28;20031;-68
2022/03/31 10:04:48;;;;;;;4.15;2.90;;;;;;;4.45;100.00;99973.00;5306088;28;20077;-68
2022/03/31 10:07:20;;;;;;;4.68;3.17;;;;;;;4.48;100.00;99977.97;5303289;28;20492;-68
2022/03/31 10:09:51;;;;;;;4.15;2.67;;;;;;;4.48;100.00;99966.75;5301992;28;20027;-70
2022/03/31 10:12:37;;;;;;;3.60;2.80;;;;;;;4.55;100.00;99957.59;5306614;28;20031;-68
2022/03/31 10:15:26;;;;;;;3.72;3.17;;;;;;;4.54;100.00;99966.31;5304707;28;20023;-68
2022/03/31 10:17:58;;;;;;;3.90;3.10;;;;;;;4.65;100.00;99966.34;5303663;28;20481;-68
2022/03/31 10:20:29;;;;;;;3.72;2.92;;;;;;;4.63;100.00;99970.81;5305902;28;20031;-68
2022/03/31 10:25:53;;;;;;;3.53;2.85;;;;;;;4.72;100.00;99977.09;5308604;28;20027;-71
2022/03/31 10:28:24;;;;;;;4.55;3.03;;;;;;;4.75;100.00;99971.69;5302801;28;20373;-70
2022/03/31 10:31:07;;;;;;;2.67;2.42;;;;;;;4.77;100.00;99977.56;5305343;28;20051;-70
2022/03/31 10:33:42;;;;;;;3.00;2.65;;;;;;;4.84;100.00;99979.59;5301892;28;20123;-70
2022/03/31 10:36:16;;;;;;;4.15;2.40;;;;;;;4.86;100.00;99971.72;5303443;28;20368;-70
2022/03/31 10:38:55;;;;;;;4.00;2.78;;;;;;;4.95;100.00;99970.19;5298930;28;20511;-70
2022/03/31 10:41:33;;;;;;;3.75;2.40;;;;;;;4.99;100.00;99971.59;5302309;28;20063;-70
2022/03/31 10:44:24;;;;;;;5.35;3.25;;;;;;;5.13;100.00;99968.78;5304698;28;20035;-70
2022/03/31 10:47:06;;;;;;;2.97;2.63;;;;;;;5.04;100.00;99970.31;5305116;28;20042;-70
2022/03/31 10:49:37;;;;;;;3.92;2.60;;;;;;;4.95;100.00;99959.78;5304685;28;20503;-70
2022/03/31 10:52:17;;;;;;;3.40;2.67;;;;;;;5.13;100.00;99966.19;5302725;28;20047;-68
2022/03/31 10:54:48;;;;;;;4.22;2.80;;;;;;;5.12;100.00;99957.59;5307662;28;20024;-68
2022/03/31 10:57:20;;;;;;;3.40;2.75;;;;;;;5.13;100.00;99961.00;5303329;28;20080;-68
2022/03/31 10:59:54;;;;;;;3.45;2.60;;;;;;;5.12;100.00;99962.78;5305695;27;20027;-71
2022/03/31 11:02:26;;;;;;;5.40;2.70;;;;;;;5.25;100.00;99961.84;5301491;28;20027;-68
2022/03/31 11:04:58;;;;;;;2.80;2.50;;;;;;;5.20;100.00;99961.38;5305425;28;20051;-69
2022/03/31 11:07:29;;;;;;;2.65;2.30;;;;;;;5.16;100.00;99955.59;5303304;28;20058;-69
2022/03/31 11:10:11;;;;;;;3.20;2.72;;;;;;;5.22;100.00;99959.47;5308058;28;20095;-69
2022/03/31 11:12:47;;;;;;;4.10;3.17;;;;;;;5.14;100.00;99960.06;5302943;28;20035;-69
2022/03/31 11:15:18;;;;;;;3.67;3.10;;;;;;;5.09;100.00;99963.00;5304554;28;20032;-69
2022/03/31 11:17:59;;;;;;;3.97;3.22;;;;;;;5.22;100.00;99954.28;5301535;28;20098;-69
2022/03/31 11:20:31;;;;;;;2.95;2.65;;;;;;;5.12;100.00;99949.78;5302392;28;20058;-70
2022/03/31 11:23:03;;;;;;;3.17;2.88;;;;;;;5.22;100.00;99949.91;5302956;28;20036;-70
2022/03/31 11:25:35;;;;;;;3.30;3.00;;;;;;;5.11;100.00;99931.72;5303184;28;20481;-69
2022/03/31 11:28:12;;;;;;;3.40;3.00;;;;;;;5.25;100.00;99943.66;5304862;28;20293;-69
2022/03/31 11:30:45;;;;;;;3.45;2.60;;;;;;;5.29;100.00;99937.28;5305650;28;20023;-69
2022/03/31 11:33:17;;;;;;;3.33;2.45;;;;;;;5.32;100.00;99937.88;5308647;28;20107;-69
2022/03/31 11:35:53;;;;;;;4.22;2.72;;;;;;;5.49;100.00;99935.72;5303779;28;20564;-69
2022/03/31 11:38:24;;;;;;;3.38;2.95;;;;;;;5.47;100.00;99933.25;5298667;28;20028;-69
2022/03/31 11:40:55;;;;;;;3.55;2.47;;;;;;;5.46;100.00;99930.78;5304555;28;20114;-69
2022/03/31 11:43:27;;;;;;;3.97;2.88;;;;;;;5.54;100.00;99934.44;5300631;28;20024;-69
2022/03/31 11:45:59;;;;;;;3.80;2.78;;;;;;;5.47;100.00;99925.47;5303081;28;20023;-69
2022/03/31 11:48:41;;;;;;;4.20;2.83;;;;;;;5.68;100.00;99928.13;5301886;28;20031;-69
2022/03/31 11:51:13;;;;;;;2.70;2.50;;;;;;;5.57;100.00;99922.97;5305613;28;20104;-69
2022/03/31 11:53:47;;;;;;;2.88;2.58;;;;;;;5.49;100.00;99926.19;5303132;28;20354;-69
2022/03/31 11:56:22;;;;;;;3.00;2.60;;;;;;;5.51;100.00;99926.88;5301947;28;20032;-69
2022/03/31 11:58:56;;;;;;;3.47;2.90;;;;;;;5.51;100.00;99920.84;5304507;28;20485;-70
2022/03/31 12:01:43;;;;;;;2.72;2.35;;;;;;;5.66;100.00;99931.81;5288283;28;20035;-70
2022/03/31 12:04:26;;;;;;;4.13;2.70;;;;;;;5.73;100.00;99925.19;5302593;28;20066;-70